Terminal Aerodrome Forecast
Issued by NWS

Home | Current Version | Previous Version | Text Only | Print | Product List | Glossary On
Versions: 1 2 3 4 5 6 7 8 9 10 11 12 13
465
FTUS42 KJAX 282344
TAFVQQ
TAF
KVQQ 282344Z 2900/2924 14010G15KT P6SM FEW040
     FM290300 14005KT P6SM SCT250
     FM290800 00000KT 3SM BR SCT005
     FM291300 14009KT P6SM SCT035
     FM292000 13011G16KT P6SM SCT040=

USA.gov is the U.S. government's official web portal to all federal, state and local government web resources and services.